Terminal Aerodrome Forecast
Issued by NWS Wilmington, OH

Current Version | Previous Version | Text Only | Print | Product List | Glossary Off
Versions: 1 2 3 4 5 6 7 8 9 10 11 12 13 14 15 16 17 18

787
FTUS41 KILN 201739
TAFILN
TAF
KILN 201739Z 2018/2118 19007KT P6SM FEW040 SCT250
     FM210000 19004KT P6SM SCT250
     FM211400 21006KT P6SM FEW050 SCT250=

USA.gov is the U.S. government's official web portal to all federal, state and local government web resources and services.